sensor_id;sensor_type;location;lat;lon;timestamp;P1;durP1;ratioP1;P2;durP2;ratioP2
485;SDS011;229;48.734;9.340;2023-12-07T00:02:01;15.20;;;11.63;;
485;SDS011;229;48.734;9.340;2023-12-07T00:04:28;17.10;;;11.95;;
485;SDS011;229;48.734;9.340;2023-12-07T00:06:55;14.68;;;11.00;;
485;SDS011;229;48.734;9.340;2023-12-07T00:09:22;20.33;;;11.90;;
485;SDS011;229;48.734;9.340;2023-12-07T00:11:51;18.08;;;12.75;;
485;SDS011;229;48.734;9.340;2023-12-07T00:14:18;16.17;;;12.10;;
485;SDS011;229;48.734;9.340;2023-12-07T00:16:45;20.08;;;12.60;;
485;SDS011;229;48.734;9.340;2023-12-07T00:19:13;15.93;;;12.85;;
485;SDS011;229;48.734;9.340;2023-12-07T00:21:40;15.18;;;11.30;;
485;SDS011;229;48.734;9.340;2023-12-07T00:24:13;19.02;;;12.55;;
485;SDS011;229;48.734;9.340;2023-12-07T00:26:40;18.83;;;12.25;;
485;SDS011;229;48.734;9.340;2023-12-07T00:29:12;18.95;;;11.85;;
485;SDS011;229;48.734;9.340;2023-12-07T00:31:39;18.73;;;12.77;;
485;SDS011;229;48.734;9.340;2023-12-07T00:34:07;19.33;;;12.15;;
485;SDS011;229;48.734;9.340;2023-12-07T00:36:36;18.50;;;13.00;;
485;SDS011;229;48.734;9.340;2023-12-07T00:39:04;18.40;;;13.27;;
485;SDS011;229;48.734;9.340;2023-12-07T00:41:31;18.70;;;11.90;;
485;SDS011;229;48.734;9.340;2023-12-07T00:43:59;18.55;;;12.77;;
485;SDS011;229;48.734;9.340;2023-12-07T00:46:38;15.95;;;12.82;;
485;SDS011;229;48.734;9.340;2023-12-07T00:49:05;17.33;;;13.30;;
485;SDS011;229;48.734;9.340;2023-12-07T00:51:32;16.63;;;12.85;;
485;SDS011;229;48.734;9.340;2023-12-07T00:53:59;19.25;;;13.88;;
485;SDS011;229;48.734;9.340;2023-12-07T00:56:27;18.55;;;12.80;;
485;SDS011;229;48.734;9.340;2023-12-07T00:58:54;20.50;;;13.45;;
485;SDS011;229;48.734;9.340;2023-12-07T01:01:21;17.95;;;13.15;;
485;SDS011;229;48.734;9.340;2023-12-07T01:03:49;18.95;;;14.00;;
485;SDS011;229;48.734;9.340;2023-12-07T01:06:17;16.92;;;12.90;;
485;SDS011;229;48.734;9.340;2023-12-07T01:08:44;17.25;;;13.23;;
485;SDS011;229;48.734;9.340;2023-12-07T01:11:11;19.10;;;13.55;;
485;SDS011;229;48.734;9.340;2023-12-07T01:13:38;18.67;;;13.60;;
485;SDS011;229;48.734;9.340;2023-12-07T01:16:06;19.30;;;13.52;;
485;SDS011;229;48.734;9.340;2023-12-07T01:18:33;17.45;;;13.05;;
485;SDS011;229;48.734;9.340;2023-12-07T01:21:02;17.13;;;12.95;;
485;SDS011;229;48.734;9.340;2023-12-07T01:23:29;16.95;;;12.85;;
485;SDS011;229;48.734;9.340;2023-12-07T01:25:56;21.33;;;13.90;;
485;SDS011;229;48.734;9.340;2023-12-07T01:28:27;19.50;;;14.00;;
485;SDS011;229;48.734;9.340;2023-12-07T01:30:54;17.25;;;13.15;;
485;SDS011;229;48.734;9.340;2023-12-07T01:33:21;17.65;;;13.55;;
485;SDS011;229;48.734;9.340;2023-12-07T01:35:48;21.15;;;15.10;;
485;SDS011;229;48.734;9.340;2023-12-07T01:38:17;17.10;;;13.15;;
485;SDS011;229;48.734;9.340;2023-12-07T01:40:44;18.17;;;12.82;;
485;SDS011;229;48.734;9.340;2023-12-07T01:43:12;18.35;;;13.32;;
485;SDS011;229;48.734;9.340;2023-12-07T01:45:39;18.65;;;13.00;;
485;SDS011;229;48.734;9.340;2023-12-07T01:48:06;17.60;;;12.60;;
485;SDS011;229;48.734;9.340;2023-12-07T01:50:34;18.88;;;14.40;;
485;SDS011;229;48.734;9.340;2023-12-07T01:53:02;17.40;;;12.95;;
485;SDS011;229;48.734;9.340;2023-12-07T01:55:32;16.58;;;12.20;;
485;SDS011;229;48.734;9.340;2023-12-07T01:57:59;15.75;;;12.43;;
485;SDS011;229;48.734;9.340;2023-12-07T02:00:27;18.05;;;13.57;;
485;SDS011;229;48.734;9.340;2023-12-07T02:02:54;21.55;;;14.75;;
485;SDS011;229;48.734;9.340;2023-12-07T02:05:22;21.55;;;14.85;;
485;SDS011;229;48.734;9.340;2023-12-07T02:07:49;23.10;;;16.50;;
485;SDS011;229;48.734;9.340;2023-12-07T02:10:16;19.67;;;14.07;;
485;SDS011;229;48.734;9.340;2023-12-07T02:12:46;18.58;;;13.25;;
485;SDS011;229;48.734;9.340;2023-12-07T02:15:14;15.85;;;12.68;;
485;SDS011;229;48.734;9.340;2023-12-07T02:17:43;18.42;;;12.57;;
485;SDS011;229;48.734;9.340;2023-12-07T02:20:16;24.58;;;13.93;;
485;SDS011;229;48.734;9.340;2023-12-07T02:22:46;22.75;;;13.70;;
485;SDS011;229;48.734;9.340;2023-12-07T02:25:16;22.98;;;14.77;;
485;SDS011;229;48.734;9.340;2023-12-07T02:27:46;19.38;;;14.30;;
485;SDS011;229;48.734;9.340;2023-12-07T02:30:14;21.00;;;14.55;;
485;SDS011;229;48.734;9.340;2023-12-07T02:32:41;19.77;;;14.05;;
485;SDS011;229;48.734;9.340;2023-12-07T02:35:09;21.15;;;15.38;;
485;SDS011;229;48.734;9.340;2023-12-07T02:37:41;16.55;;;12.48;;
485;SDS011;229;48.734;9.340;2023-12-07T02:40:09;18.50;;;12.95;;
485;SDS011;229;48.734;9.340;2023-12-07T02:42:37;18.23;;;13.18;;
485;SDS011;229;48.734;9.340;2023-12-07T02:45:07;20.92;;;14.52;;
485;SDS011;229;48.734;9.340;2023-12-07T02:47:34;17.67;;;13.68;;
485;SDS011;229;48.734;9.340;2023-12-07T02:50:04;17.70;;;13.80;;
485;SDS011;229;48.734;9.340;2023-12-07T02:52:31;19.67;;;14.10;;
485;SDS011;229;48.734;9.340;2023-12-07T02:54:59;18.17;;;13.20;;
485;SDS011;229;48.734;9.340;2023-12-07T02:57:26;21.92;;;15.13;;
485;SDS011;229;48.734;9.340;2023-12-07T02:59:53;19.75;;;13.55;;
485;SDS011;229;48.734;9.340;2023-12-07T03:02:22;22.25;;;13.93;;
485;SDS011;229;48.734;9.340;2023-12-07T03:04:49;18.73;;;14.15;;
485;SDS011;229;48.734;9.340;2023-12-07T03:07:16;20.20;;;15.10;;
485;SDS011;229;48.734;9.340;2023-12-07T03:09:43;21.92;;;14.82;;
485;SDS011;229;48.734;9.340;2023-12-07T03:12:14;20.33;;;14.68;;
485;SDS011;229;48.734;9.340;2023-12-07T03:14:43;20.95;;;14.35;;
485;SDS011;229;48.734;9.340;2023-12-07T03:17:12;20.92;;;14.93;;
485;SDS011;229;48.734;9.340;2023-12-07T03:19:41;19.00;;;14.05;;
485;SDS011;229;48.734;9.340;2023-12-07T03:22:09;20.88;;;14.35;;
485;SDS011;229;48.734;9.340;2023-12-07T03:24:39;18.73;;;14.23;;
485;SDS011;229;48.734;9.340;2023-12-07T03:27:06;23.65;;;14.80;;
485;SDS011;229;48.734;9.340;2023-12-07T03:29:33;22.30;;;15.07;;
485;SDS011;229;48.734;9.340;2023-12-07T03:32:00;19.80;;;14.23;;
485;SDS011;229;48.734;9.340;2023-12-07T03:34:30;19.48;;;13.82;;
485;SDS011;229;48.734;9.340;2023-12-07T03:37:00;18.10;;;13.80;;
485;SDS011;229;48.734;9.340;2023-12-07T03:39:28;20.35;;;14.43;;
485;SDS011;229;48.734;9.340;2023-12-07T03:41:57;20.63;;;15.05;;
485;SDS011;229;48.734;9.340;2023-12-07T03:44:24;22.95;;;14.90;;
485;SDS011;229;48.734;9.340;2023-12-07T03:46:55;20.60;;;14.50;;
485;SDS011;229;48.734;9.340;2023-12-07T03:49:23;21.25;;;15.27;;
485;SDS011;229;48.734;9.340;2023-12-07T03:51:50;22.60;;;14.73;;
485;SDS011;229;48.734;9.340;2023-12-07T03:54:19;21.98;;;15.60;;
485;SDS011;229;48.734;9.340;2023-12-07T03:56:51;20.27;;;14.57;;
485;SDS011;229;48.734;9.340;2023-12-07T03:59:18;20.50;;;14.82;;
485;SDS011;229;48.734;9.340;2023-12-07T04:01:47;21.65;;;15.93;;
485;SDS011;229;48.734;9.340;2023-12-07T04:04:15;20.95;;;15.38;;
485;SDS011;229;48.734;9.340;2023-12-07T04:06:43;20.13;;;15.63;;
485;SDS011;229;48.734;9.340;2023-12-07T04:09:10;19.25;;;15.02;;
485;SDS011;229;48.734;9.340;2023-12-07T04:11:39;22.17;;;16.00;;
485;SDS011;229;48.734;9.340;2023-12-07T04:14:06;26.35;;;16.25;;
485;SDS011;229;48.734;9.340;2023-12-07T04:16:33;22.05;;;16.15;;
485;SDS011;229;48.734;9.340;2023-12-07T04:19:01;23.90;;;17.58;;
485;SDS011;229;48.734;9.340;2023-12-07T04:21:28;22.60;;;16.20;;
485;SDS011;229;48.734;9.340;2023-12-07T04:23:55;23.08;;;16.55;;
485;SDS011;229;48.734;9.340;2023-12-07T04:26:23;24.20;;;16.20;;
485;SDS011;229;48.734;9.340;2023-12-07T04:28:51;22.42;;;15.95;;
485;SDS011;229;48.734;9.340;2023-12-07T04:31:21;25.88;;;17.60;;
485;SDS011;229;48.734;9.340;2023-12-07T04:33:48;20.45;;;15.45;;
485;SDS011;229;48.734;9.340;2023-12-07T04:36:16;22.63;;;15.82;;
485;SDS011;229;48.734;9.340;2023-12-07T04:38:46;23.42;;;16.13;;
485;SDS011;229;48.734;9.340;2023-12-07T04:41:13;23.27;;;16.63;;
485;SDS011;229;48.734;9.340;2023-12-07T04:43:40;21.65;;;15.98;;
485;SDS011;229;48.734;9.340;2023-12-07T04:46:13;23.60;;;15.82;;
485;SDS011;229;48.734;9.340;2023-12-07T04:48:42;22.70;;;15.95;;
485;SDS011;229;48.734;9.340;2023-12-07T04:51:09;22.40;;;15.07;;
485;SDS011;229;48.734;9.340;2023-12-07T04:53:36;19.33;;;14.70;;
485;SDS011;229;48.734;9.340;2023-12-07T04:56:04;21.95;;;14.93;;
485;SDS011;229;48.734;9.340;2023-12-07T04:58:31;23.38;;;15.35;;
485;SDS011;229;48.734;9.340;2023-12-07T05:00:59;20.73;;;15.32;;
485;SDS011;229;48.734;9.340;2023-12-07T05:03:29;24.52;;;16.42;;
485;SDS011;229;48.734;9.340;2023-12-07T05:05:56;28.33;;;15.50;;
485;SDS011;229;48.734;9.340;2023-12-07T05:08:23;23.63;;;15.70;;
485;SDS011;229;48.734;9.340;2023-12-07T05:10:51;22.08;;;15.65;;
485;SDS011;229;48.734;9.340;2023-12-07T05:13:18;22.65;;;14.75;;
485;SDS011;229;48.734;9.340;2023-12-07T05:15:45;22.60;;;14.95;;
485;SDS011;229;48.734;9.340;2023-12-07T05:18:12;22.10;;;14.75;;
485;SDS011;229;48.734;9.340;2023-12-07T05:20:41;19.35;;;14.00;;
485;SDS011;229;48.734;9.340;2023-12-07T05:23:09;19.58;;;15.02;;
485;SDS011;229;48.734;9.340;2023-12-07T05:25:36;23.08;;;15.43;;
485;SDS011;229;48.734;9.340;2023-12-07T05:28:03;23.38;;;15.18;;
485;SDS011;229;48.734;9.340;2023-12-07T05:30:30;20.95;;;14.73;;
485;SDS011;229;48.734;9.340;2023-12-07T05:32:58;23.65;;;15.00;;
485;SDS011;229;48.734;9.340;2023-12-07T05:35:25;23.02;;;15.85;;
485;SDS011;229;48.734;9.340;2023-12-07T05:37:54;20.85;;;14.80;;
485;SDS011;229;48.734;9.340;2023-12-07T05:40:21;21.83;;;14.95;;
485;SDS011;229;48.734;9.340;2023-12-07T05:42:52;19.85;;;14.15;;
485;SDS011;229;48.734;9.340;2023-12-07T05:45:20;22.63;;;14.73;;
485;SDS011;229;48.734;9.340;2023-12-07T05:47:48;18.75;;;14.57;;
485;SDS011;229;48.734;9.340;2023-12-07T05:50:18;20.13;;;15.02;;
485;SDS011;229;48.734;9.340;2023-12-07T05:52:45;20.85;;;14.88;;
485;SDS011;229;48.734;9.340;2023-12-07T05:55:14;20.88;;;14.35;;
485;SDS011;229;48.734;9.340;2023-12-07T05:57:48;20.67;;;14.65;;
485;SDS011;229;48.734;9.340;2023-12-07T06:00:24;20.23;;;14.70;;
485;SDS011;229;48.734;9.340;2023-12-07T06:02:56;22.50;;;14.82;;
485;SDS011;229;48.734;9.340;2023-12-07T06:05:28;22.17;;;15.43;;
485;SDS011;229;48.734;9.340;2023-12-07T06:08:04;23.75;;;15.82;;
485;SDS011;229;48.734;9.340;2023-12-07T06:10:44;23.75;;;16.10;;
485;SDS011;229;48.734;9.340;2023-12-07T06:13:13;23.13;;;15.90;;
485;SDS011;229;48.734;9.340;2023-12-07T06:15:41;23.25;;;15.70;;
485;SDS011;229;48.734;9.340;2023-12-07T06:18:19;21.77;;;15.43;;
485;SDS011;229;48.734;9.340;2023-12-07T06:20:50;23.98;;;16.70;;
485;SDS011;229;48.734;9.340;2023-12-07T06:23:33;21.55;;;15.63;;
485;SDS011;229;48.734;9.340;2023-12-07T06:26:03;22.58;;;15.65;;
485;SDS011;229;48.734;9.340;2023-12-07T06:28:31;25.25;;;16.00;;
485;SDS011;229;48.734;9.340;2023-12-07T06:31:04;23.35;;;16.38;;
485;SDS011;229;48.734;9.340;2023-12-07T06:33:32;29.38;;;18.30;;
485;SDS011;229;48.734;9.340;2023-12-07T06:36:00;27.55;;;17.95;;
485;SDS011;229;48.734;9.340;2023-12-07T06:38:28;24.85;;;16.80;;
485;SDS011;229;48.734;9.340;2023-12-07T06:41:01;24.17;;;17.15;;
485;SDS011;229;48.734;9.340;2023-12-07T06:43:33;23.48;;;16.38;;
485;SDS011;229;48.734;9.340;2023-12-07T06:46:03;26.25;;;17.42;;
485;SDS011;229;48.734;9.340;2023-12-07T06:48:31;22.75;;;16.20;;
485;SDS011;229;48.734;9.340;2023-12-07T06:51:08;26.88;;;16.95;;
485;SDS011;229;48.734;9.340;2023-12-07T06:53:48;28.52;;;18.60;;
485;SDS011;229;48.734;9.340;2023-12-07T06:56:18;24.42;;;16.75;;
485;SDS011;229;48.734;9.340;2023-12-07T06:59:03;23.63;;;16.80;;
485;SDS011;229;48.734;9.340;2023-12-07T07:01:31;29.30;;;18.98;;
485;SDS011;229;48.734;9.340;2023-12-07T07:03:58;23.77;;;17.60;;
485;SDS011;229;48.734;9.340;2023-12-07T07:06:25;28.17;;;18.50;;
485;SDS011;229;48.734;9.340;2023-12-07T07:08:54;27.95;;;18.83;;
485;SDS011;229;48.734;9.340;2023-12-07T07:11:23;29.30;;;18.58;;
485;SDS011;229;48.734;9.340;2023-12-07T07:13:54;28.77;;;18.33;;
485;SDS011;229;48.734;9.340;2023-12-07T07:16:31;26.05;;;17.95;;
485;SDS011;229;48.734;9.340;2023-12-07T07:19:04;25.73;;;18.42;;
485;SDS011;229;48.734;9.340;2023-12-07T07:21:32;28.65;;;18.80;;
485;SDS011;229;48.734;9.340;2023-12-07T07:23:59;28.38;;;18.50;;
485;SDS011;229;48.734;9.340;2023-12-07T07:26:26;26.23;;;18.00;;
485;SDS011;229;48.734;9.340;2023-12-07T07:28:54;27.20;;;18.35;;
485;SDS011;229;48.734;9.340;2023-12-07T07:31:22;26.80;;;18.45;;
485;SDS011;229;48.734;9.340;2023-12-07T07:33:50;26.58;;;18.90;;
485;SDS011;229;48.734;9.340;2023-12-07T07:36:17;26.80;;;17.85;;
485;SDS011;229;48.734;9.340;2023-12-07T07:38:44;26.27;;;18.80;;
485;SDS011;229;48.734;9.340;2023-12-07T07:41:11;26.52;;;18.40;;
485;SDS011;229;48.734;9.340;2023-12-07T07:43:38;25.15;;;17.25;;
485;SDS011;229;48.734;9.340;2023-12-07T07:46:06;22.02;;;16.98;;
485;SDS011;229;48.734;9.340;2023-12-07T07:48:35;25.73;;;16.50;;
485;SDS011;229;48.734;9.340;2023-12-07T07:51:02;23.80;;;17.25;;
485;SDS011;229;48.734;9.340;2023-12-07T07:53:45;26.05;;;17.45;;
485;SDS011;229;48.734;9.340;2023-12-07T11:14:23;14.82;;;10.52;;
485;SDS011;229;48.734;9.340;2023-12-07T11:16:51;14.45;;;10.60;;
485;SDS011;229;48.734;9.340;2023-12-07T11:22:07;14.68;;;11.00;;
485;SDS011;229;48.734;9.340;2023-12-07T11:24:47;15.88;;;11.60;;
485;SDS011;229;48.734;9.340;2023-12-07T11:27:21;18.42;;;10.75;;
485;SDS011;229;48.734;9.340;2023-12-07T11:29:50;15.07;;;9.57;;
485;SDS011;229;48.734;9.340;2023-12-07T11:32:17;17.70;;;13.35;;
485;SDS011;229;48.734;9.340;2023-12-07T11:34:45;12.95;;;10.10;;
485;SDS011;229;48.734;9.340;2023-12-07T11:37:14;12.80;;;8.05;;
485;SDS011;229;48.734;9.340;2023-12-07T11:39:42;9.85;;;8.05;;
485;SDS011;229;48.734;9.340;2023-12-07T11:42:11;12.52;;;6.82;;
485;SDS011;229;48.734;9.340;2023-12-07T11:44:38;14.45;;;7.40;;
485;SDS011;229;48.734;9.340;2023-12-07T11:47:08;9.95;;;7.68;;
485;SDS011;229;48.734;9.340;2023-12-07T11:49:35;10.40;;;7.30;;
485;SDS011;229;48.734;9.340;2023-12-07T11:52:12;9.75;;;7.85;;
485;SDS011;229;48.734;9.340;2023-12-07T11:54:40;15.00;;;9.40;;
485;SDS011;229;48.734;9.340;2023-12-07T11:57:09;9.38;;;7.40;;
485;SDS011;229;48.734;9.340;2023-12-07T11:59:36;7.50;;;6.60;;
485;SDS011;229;48.734;9.340;2023-12-07T12:02:03;13.73;;;7.85;;
485;SDS011;229;48.734;9.340;2023-12-07T12:04:32;13.27;;;9.82;;
485;SDS011;229;48.734;9.340;2023-12-07T12:06:59;10.63;;;5.90;;
485;SDS011;229;48.734;9.340;2023-12-07T12:09:26;10.32;;;6.68;;
485;SDS011;229;48.734;9.340;2023-12-07T12:11:53;11.73;;;6.35;;
485;SDS011;229;48.734;9.340;2023-12-07T12:14:25;9.77;;;6.57;;
485;SDS011;229;48.734;9.340;2023-12-07T12:16:52;9.80;;;7.47;;
485;SDS011;229;48.734;9.340;2023-12-07T12:19:21;9.70;;;6.55;;
485;SDS011;229;48.734;9.340;2023-12-07T12:21:50;9.40;;;6.15;;
485;SDS011;229;48.734;9.340;2023-12-07T12:24:18;14.98;;;6.13;;
485;SDS011;229;48.734;9.340;2023-12-07T12:26:45;8.73;;;5.95;;
485;SDS011;229;48.734;9.340;2023-12-07T12:29:13;6.93;;;5.30;;
485;SDS011;229;48.734;9.340;2023-12-07T12:31:41;10.73;;;6.65;;
485;SDS011;229;48.734;9.340;2023-12-07T12:34:08;11.18;;;6.95;;
485;SDS011;229;48.734;9.340;2023-12-07T12:36:38;9.20;;;6.43;;
485;SDS011;229;48.734;9.340;2023-12-07T12:39:07;10.15;;;7.50;;
485;SDS011;229;48.734;9.340;2023-12-07T12:41:35;11.07;;;6.40;;
485;SDS011;229;48.734;9.340;2023-12-07T12:44:02;8.43;;;6.63;;
485;SDS011;229;48.734;9.340;2023-12-07T12:46:29;8.85;;;7.82;;
485;SDS011;229;48.734;9.340;2023-12-07T12:48:58;10.20;;;6.75;;
485;SDS011;229;48.734;9.340;2023-12-07T12:51:25;8.18;;;6.75;;
485;SDS011;229;48.734;9.340;2023-12-07T12:53:53;8.85;;;6.35;;
485;SDS011;229;48.734;9.340;2023-12-07T12:56:22;11.20;;;7.00;;
485;SDS011;229;48.734;9.340;2023-12-07T12:58:49;10.80;;;6.95;;
485;SDS011;229;48.734;9.340;2023-12-07T13:01:16;8.50;;;6.88;;
485;SDS011;229;48.734;9.340;2023-12-07T13:03:45;8.15;;;6.93;;
485;SDS011;229;48.734;9.340;2023-12-07T13:06:12;10.85;;;7.15;;
485;SDS011;229;48.734;9.340;2023-12-07T13:08:40;8.05;;;6.30;;
485;SDS011;229;48.734;9.340;2023-12-07T13:11:08;8.32;;;6.15;;
485;SDS011;229;48.734;9.340;2023-12-07T13:13:37;9.05;;;5.50;;
485;SDS011;229;48.734;9.340;2023-12-07T13:16:04;8.75;;;4.93;;
485;SDS011;229;48.734;9.340;2023-12-07T13:18:32;10.02;;;5.80;;
485;SDS011;229;48.734;9.340;2023-12-07T13:20:59;7.78;;;5.40;;
485;SDS011;229;48.734;9.340;2023-12-07T13:23:27;6.68;;;5.22;;
485;SDS011;229;48.734;9.340;2023-12-07T13:25:55;11.35;;;4.85;;
485;SDS011;229;48.734;9.340;2023-12-07T13:28:22;5.70;;;3.90;;
485;SDS011;229;48.734;9.340;2023-12-07T13:30:50;4.35;;;3.70;;
485;SDS011;229;48.734;9.340;2023-12-07T13:33:19;5.85;;;3.50;;
485;SDS011;229;48.734;9.340;2023-12-07T13:35:47;4.20;;;3.40;;
485;SDS011;229;48.734;9.340;2023-12-07T13:38:14;4.03;;;3.22;;
485;SDS011;229;48.734;9.340;2023-12-07T13:40:45;5.07;;;2.60;;
485;SDS011;229;48.734;9.340;2023-12-07T13:43:12;3.78;;;3.00;;
485;SDS011;229;48.734;9.340;2023-12-07T13:45:39;4.82;;;3.17;;
485;SDS011;229;48.734;9.340;2023-12-07T13:48:09;4.22;;;3.28;;
485;SDS011;229;48.734;9.340;2023-12-07T13:50:37;2.80;;;2.67;;
485;SDS011;229;48.734;9.340;2023-12-07T13:53:04;4.75;;;3.10;;
485;SDS011;229;48.734;9.340;2023-12-07T13:55:35;6.95;;;2.90;;
485;SDS011;229;48.734;9.340;2023-12-07T13:58:02;11.07;;;6.40;;
485;SDS011;229;48.734;9.340;2023-12-07T14:00:31;5.97;;;3.67;;
485;SDS011;229;48.734;9.340;2023-12-07T14:02:59;4.60;;;3.63;;
485;SDS011;229;48.734;9.340;2023-12-07T14:05:27;3.20;;;3.10;;
485;SDS011;229;48.734;9.340;2023-12-07T14:07:55;4.70;;;3.60;;
485;SDS011;229;48.734;9.340;2023-12-07T14:10:22;4.00;;;3.45;;
485;SDS011;229;48.734;9.340;2023-12-07T14:12:49;5.22;;;3.35;;
485;SDS011;229;48.734;9.340;2023-12-07T14:15:16;4.57;;;3.47;;
485;SDS011;229;48.734;9.340;2023-12-07T14:17:44;5.47;;;3.50;;
485;SDS011;229;48.734;9.340;2023-12-07T14:20:11;5.38;;;3.58;;
485;SDS011;229;48.734;9.340;2023-12-07T14:22:40;4.70;;;2.88;;
485;SDS011;229;48.734;9.340;2023-12-07T14:25:07;3.53;;;2.90;;
485;SDS011;229;48.734;9.340;2023-12-07T14:27:35;4.97;;;3.00;;
485;SDS011;229;48.734;9.340;2023-12-07T14:30:02;3.60;;;3.05;;
485;SDS011;229;48.734;9.340;2023-12-07T14:32:29;4.35;;;3.47;;
485;SDS011;229;48.734;9.340;2023-12-07T14:34:56;4.85;;;3.40;;
485;SDS011;229;48.734;9.340;2023-12-07T14:37:23;5.78;;;3.50;;
485;SDS011;229;48.734;9.340;2023-12-07T14:39:52;3.70;;;2.95;;
485;SDS011;229;48.734;9.340;2023-12-07T14:42:19;4.07;;;3.53;;
485;SDS011;229;48.734;9.340;2023-12-07T14:44:46;9.73;;;3.92;;
485;SDS011;229;48.734;9.340;2023-12-07T14:47:14;4.30;;;3.80;;
485;SDS011;229;48.734;9.340;2023-12-07T14:49:42;4.32;;;3.63;;
485;SDS011;229;48.734;9.340;2023-12-07T14:52:09;5.78;;;3.70;;
485;SDS011;229;48.734;9.340;2023-12-07T14:54:36;5.18;;;4.00;;
485;SDS011;229;48.734;9.340;2023-12-07T14:57:04;3.80;;;3.58;;
485;SDS011;229;48.734;9.340;2023-12-07T14:59:33;3.28;;;3.15;;
485;SDS011;229;48.734;9.340;2023-12-07T15:02:00;6.50;;;3.65;;
485;SDS011;229;48.734;9.340;2023-12-07T15:04:27;4.82;;;3.92;;
485;SDS011;229;48.734;9.340;2023-12-07T15:06:55;4.18;;;3.70;;
485;SDS011;229;48.734;9.340;2023-12-07T15:09:23;6.30;;;4.22;;
485;SDS011;229;48.734;9.340;2023-12-07T15:11:50;5.45;;;4.15;;
485;SDS011;229;48.734;9.340;2023-12-07T15:14:18;5.50;;;4.13;;
485;SDS011;229;48.734;9.340;2023-12-07T15:16:46;6.70;;;4.45;;
485;SDS011;229;48.734;9.340;2023-12-07T15:19:13;7.07;;;4.13;;
485;SDS011;229;48.734;9.340;2023-12-07T15:21:41;6.30;;;3.60;;
485;SDS011;229;48.734;9.340;2023-12-07T15:24:08;13.85;;;4.30;;
485;SDS011;229;48.734;9.340;2023-12-07T15:26:35;7.95;;;4.05;;
485;SDS011;229;48.734;9.340;2023-12-07T15:29:03;10.68;;;4.57;;
485;SDS011;229;48.734;9.340;2023-12-07T15:31:31;12.80;;;4.60;;
485;SDS011;229;48.734;9.340;2023-12-07T15:33:59;7.20;;;4.13;;
485;SDS011;229;48.734;9.340;2023-12-07T15:36:26;5.10;;;3.90;;
485;SDS011;229;48.734;9.340;2023-12-07T15:38:54;7.07;;;3.63;;
485;SDS011;229;48.734;9.340;2023-12-07T15:41:21;4.55;;;3.20;;
485;SDS011;229;48.734;9.340;2023-12-07T15:43:49;6.57;;;4.50;;
485;SDS011;229;48.734;9.340;2023-12-07T15:46:16;6.80;;;4.78;;
485;SDS011;229;48.734;9.340;2023-12-07T15:48:44;5.70;;;4.22;;
485;SDS011;229;48.734;9.340;2023-12-07T15:51:11;5.70;;;4.63;;
485;SDS011;229;48.734;9.340;2023-12-07T15:53:39;7.90;;;4.80;;
485;SDS011;229;48.734;9.340;2023-12-07T15:56:06;8.00;;;5.30;;
485;SDS011;229;48.734;9.340;2023-12-07T15:58:34;7.28;;;4.85;;
485;SDS011;229;48.734;9.340;2023-12-07T16:01:02;9.05;;;5.15;;
485;SDS011;229;48.734;9.340;2023-12-07T16:03:29;8.00;;;6.38;;
485;SDS011;229;48.734;9.340;2023-12-07T16:05:57;8.20;;;5.53;;
485;SDS011;229;48.734;9.340;2023-12-07T16:08:26;14.15;;;7.32;;
485;SDS011;229;48.734;9.340;2023-12-07T16:10:53;12.30;;;7.13;;
485;SDS011;229;48.734;9.340;2023-12-07T16:13:20;9.20;;;6.00;;
485;SDS011;229;48.734;9.340;2023-12-07T16:15:47;10.50;;;6.93;;
485;SDS011;229;48.734;9.340;2023-12-07T16:18:15;9.80;;;6.13;;
485;SDS011;229;48.734;9.340;2023-12-07T16:20:42;14.20;;;7.40;;
485;SDS011;229;48.734;9.340;2023-12-07T16:23:10;12.40;;;7.55;;
485;SDS011;229;48.734;9.340;2023-12-07T16:25:37;9.88;;;6.88;;
485;SDS011;229;48.734;9.340;2023-12-07T16:28:05;9.20;;;6.65;;
485;SDS011;229;48.734;9.340;2023-12-07T16:30:32;15.52;;;7.15;;
485;SDS011;229;48.734;9.340;2023-12-07T16:32:59;10.43;;;6.00;;
485;SDS011;229;48.734;9.340;2023-12-07T16:35:26;9.15;;;7.00;;
485;SDS011;229;48.734;9.340;2023-12-07T16:37:54;10.30;;;7.35;;
485;SDS011;229;48.734;9.340;2023-12-07T16:40:22;11.98;;;7.40;;
485;SDS011;229;48.734;9.340;2023-12-07T16:42:50;10.05;;;7.53;;
485;SDS011;229;48.734;9.340;2023-12-07T16:45:18;11.18;;;6.90;;
485;SDS011;229;48.734;9.340;2023-12-07T16:47:45;14.85;;;7.97;;
485;SDS011;229;48.734;9.340;2023-12-07T16:50:14;13.02;;;6.93;;
485;SDS011;229;48.734;9.340;2023-12-07T16:52:41;10.95;;;8.20;;
485;SDS011;229;48.734;9.340;2023-12-07T16:55:08;9.57;;;7.15;;
485;SDS011;229;48.734;9.340;2023-12-07T16:57:37;13.45;;;10.27;;
485;SDS011;229;48.734;9.340;2023-12-07T17:00:05;10.57;;;8.50;;
485;SDS011;229;48.734;9.340;2023-12-07T17:02:32;13.20;;;8.88;;
485;SDS011;229;48.734;9.340;2023-12-07T17:04:59;11.77;;;8.98;;
485;SDS011;229;48.734;9.340;2023-12-07T17:07:27;15.13;;;9.10;;
485;SDS011;229;48.734;9.340;2023-12-07T17:09:54;13.90;;;8.85;;
485;SDS011;229;48.734;9.340;2023-12-07T17:12:21;12.85;;;8.93;;
485;SDS011;229;48.734;9.340;2023-12-07T17:14:49;14.48;;;10.45;;
485;SDS011;229;48.734;9.340;2023-12-07T17:17:17;15.35;;;11.20;;
485;SDS011;229;48.734;9.340;2023-12-07T17:19:44;15.10;;;10.23;;
485;SDS011;229;48.734;9.340;2023-12-07T17:22:11;13.25;;;9.60;;
485;SDS011;229;48.734;9.340;2023-12-07T17:24:38;15.77;;;10.07;;
485;SDS011;229;48.734;9.340;2023-12-07T17:27:06;13.35;;;9.73;;
485;SDS011;229;48.734;9.340;2023-12-07T17:29:33;13.23;;;10.23;;
485;SDS011;229;48.734;9.340;2023-12-07T17:32:01;14.48;;;11.00;;
485;SDS011;229;48.734;9.340;2023-12-07T17:34:29;14.55;;;10.48;;
485;SDS011;229;48.734;9.340;2023-12-07T17:36:56;15.40;;;11.73;;
485;SDS011;229;48.734;9.340;2023-12-07T17:39:23;15.35;;;11.20;;
485;SDS011;229;48.734;9.340;2023-12-07T17:41:50;13.32;;;10.48;;
485;SDS011;229;48.734;9.340;2023-12-07T17:44:17;15.25;;;9.18;;
485;SDS011;229;48.734;9.340;2023-12-07T17:46:44;17.98;;;10.32;;
485;SDS011;229;48.734;9.340;2023-12-07T17:49:13;16.50;;;10.77;;
485;SDS011;229;48.734;9.340;2023-12-07T17:51:40;15.30;;;11.65;;
485;SDS011;229;48.734;9.340;2023-12-07T17:54:08;12.57;;;8.98;;
485;SDS011;229;48.734;9.340;2023-12-07T17:56:38;13.85;;;10.23;;
485;SDS011;229;48.734;9.340;2023-12-07T17:59:06;11.70;;;9.48;;
485;SDS011;229;48.734;9.340;2023-12-07T18:01:33;16.50;;;11.45;;
485;SDS011;229;48.734;9.340;2023-12-07T18:04:01;12.38;;;9.95;;
485;SDS011;229;48.734;9.340;2023-12-07T18:06:29;15.20;;;10.82;;
485;SDS011;229;48.734;9.340;2023-12-07T18:08:56;13.63;;;9.43;;
485;SDS011;229;48.734;9.340;2023-12-07T18:11:24;13.95;;;9.65;;
485;SDS011;229;48.734;9.340;2023-12-07T18:13:51;16.90;;;9.65;;
485;SDS011;229;48.734;9.340;2023-12-07T18:16:19;10.73;;;8.57;;
485;SDS011;229;48.734;9.340;2023-12-07T18:18:47;11.57;;;8.90;;
485;SDS011;229;48.734;9.340;2023-12-07T18:21:14;12.57;;;9.25;;
485;SDS011;229;48.734;9.340;2023-12-07T18:23:43;12.57;;;9.27;;
485;SDS011;229;48.734;9.340;2023-12-07T18:26:10;10.82;;;8.75;;
485;SDS011;229;48.734;9.340;2023-12-07T18:28:46;11.63;;;8.82;;
485;SDS011;229;48.734;9.340;2023-12-07T18:31:13;12.55;;;8.63;;
485;SDS011;229;48.734;9.340;2023-12-07T18:33:41;11.32;;;8.50;;
485;SDS011;229;48.734;9.340;2023-12-07T18:36:08;11.45;;;7.78;;
485;SDS011;229;48.734;9.340;2023-12-07T18:38:36;11.30;;;8.13;;
485;SDS011;229;48.734;9.340;2023-12-07T18:41:04;14.60;;;8.95;;
485;SDS011;229;48.734;9.340;2023-12-07T18:43:32;13.88;;;9.93;;
485;SDS011;229;48.734;9.340;2023-12-07T18:46:00;14.20;;;9.60;;
485;SDS011;229;48.734;9.340;2023-12-07T18:48:30;12.73;;;8.90;;
485;SDS011;229;48.734;9.340;2023-12-07T18:50:57;15.45;;;8.73;;
485;SDS011;229;48.734;9.340;2023-12-07T18:53:24;12.32;;;9.90;;